Time;durP1;ratioP1;P1;durP2;ratioP2;P2;SDS_P1;SDS_P2;PMS_P1;PMS_P2;Temp;Humidity;BMP_temperature;BMP_pressure;BME280_temperature;BME280_humidity;BME280_pressure;Samples;Min_cycle;Max_cycle;Signal;HPM_P1;HPM_P2
2022/01/03 00:01:39;;;;;;;65.53;8.17;;;10.70;99.90;;;;;;5104597;27;38874;-70
2022/01/03 00:04:09;;;;;;;73.40;8.03;;;10.80;99.90;;;;;;5091542;27;38923;-71
2022/01/03 00:06:38;;;;;;;54.13;8.07;;;10.80;99.90;;;;;;5078212;27;39487;-72
2022/01/03 00:09:06;;;;;;;60.80;8.07;;;10.80;99.90;;;;;;5098595;27;39566;-71
2022/01/03 00:11:32;;;;;;;64.70;8.30;;;10.80;99.90;;;;;;5103160;27;39138;-70
2022/01/03 00:13:58;;;;;;;61.37;7.43;;;10.70;99.90;;;;;;5083434;28;39171;-71
2022/01/03 00:16:24;;;;;;;51.70;8.23;;;10.70;99.90;;;;;;5097223;27;37585;-71
2022/01/03 00:18:52;;;;;;;52.93;8.03;;;10.60;99.90;;;;;;5084184;28;37760;-72
2022/01/03 00:21:20;;;;;;;51.87;8.50;;;10.60;99.90;;;;;;5099360;27;38638;-71
2022/01/03 00:24:02;;;;;;;55.93;10.33;;;10.60;99.90;;;;;;5076341;27;39192;-71
2022/01/03 00:26:30;;;;;;;52.57;7.30;;;10.60;99.90;;;;;;5078897;27;47602;-71
2022/01/03 00:29:00;;;;;;;39.20;5.77;;;10.60;99.90;;;;;;5082030;28;38155;-71
2022/01/03 00:31:36;;;;;;;56.47;8.07;;;10.70;99.90;;;;;;5072213;27;37615;-71
2022/01/03 00:34:05;;;;;;;51.60;9.13;;;10.70;99.90;;;;;;5097695;27;38512;-72
2022/01/03 00:36:32;;;;;;;53.00;8.60;;;10.70;99.90;;;;;;5083913;27;36249;-70
2022/01/03 00:38:59;;;;;;;59.47;8.67;;;10.70;99.90;;;;;;5091907;27;38539;-71
2022/01/03 00:41:25;;;;;;;60.67;11.47;;;10.70;99.90;;;;;;5099180;27;38061;-70
2022/01/03 00:43:53;;;;;;;57.80;7.73;;;10.70;99.90;;;;;;5097306;27;37739;-71
2022/01/03 00:46:20;;;;;;;47.50;7.57;;;10.70;99.90;;;;;;5096436;27;37554;-71
2022/01/03 00:48:46;;;;;;;62.83;8.87;;;10.70;99.90;;;;;;5081160;27;37006;-71
2022/01/03 00:51:17;;;;;;;65.07;8.30;;;10.70;99.90;;;;;;5087254;27;39624;-71
2022/01/03 00:53:43;;;;;;;58.20;8.13;;;10.70;99.90;;;;;;5087182;27;39272;-71
2022/01/03 00:56:13;;;;;;;66.47;10.30;;;10.70;99.90;;;;;;5104421;27;37753;-72
2022/01/03 00:58:57;;;;;;;50.73;8.23;;;10.70;99.90;;;;;;5072256;28;39219;-71
2022/01/03 01:01:25;;;;;;;60.60;7.47;;;10.70;99.90;;;;;;5077430;27;37906;-70
2022/01/03 01:03:55;;;;;;;63.37;8.70;;;10.70;99.90;;;;;;5106189;27;39054;-70
2022/01/03 01:06:22;;;;;;;55.53;10.17;;;10.70;99.90;;;;;;5084055;27;37671;-70
2022/01/03 01:08:55;;;;;;;50.33;7.83;;;10.70;99.90;;;;;;5105313;27;39766;-70
2022/01/03 01:11:28;;;;;;;54.83;7.57;;;10.60;99.90;;;;;;5103735;27;37773;-70
2022/01/03 01:13:55;;;;;;;51.83;8.20;;;10.60;99.90;;;;;;5093367;27;37850;-70
2022/01/03 01:16:22;;;;;;;74.63;8.87;;;10.60;99.90;;;;;;5085184;27;38785;-70
2022/01/03 01:18:49;;;;;;;61.27;7.23;;;10.60;99.90;;;;;;5096735;28;37716;-71
2022/01/03 01:21:16;;;;;;;54.47;7.53;;;10.60;99.90;;;;;;5099674;27;38497;-72
2022/01/03 01:23:43;;;;;;;57.93;8.07;;;10.60;99.90;;;;;;5101049;27;36465;-71
2022/01/03 01:28:55;;;;;;;51.73;8.47;;;10.60;99.90;;;;;;5099816;27;39163;-71
2022/01/03 01:31:23;;;;;;;65.47;9.87;;;10.60;99.90;;;;;;5101370;27;39499;-70
2022/01/03 01:33:56;;;;;;;64.90;10.03;;;10.60;99.90;;;;;;5085635;27;38141;-71
2022/01/03 01:36:29;;;;;;;63.78;9.90;;;10.60;99.90;;;;;;5095412;27;39298;-71
2022/01/03 01:39:02;;;;;;;64.07;8.67;;;10.60;99.90;;;;;;5084962;28;39923;-71
2022/01/03 01:41:29;;;;;;;62.00;9.53;;;10.60;99.90;;;;;;5092366;27;47374;-71
2022/01/03 01:43:59;;;;;;;56.37;9.33;;;10.60;99.90;;;;;;5108737;27;38090;-71
2022/01/03 01:46:26;;;;;;;62.97;8.23;;;10.60;99.90;;;;;;5097137;27;37194;-71
2022/01/03 01:48:53;;;;;;;63.50;8.80;;;10.60;99.90;;;;;;5096022;27;38929;-71
2022/01/03 01:51:22;;;;;;;66.47;9.20;;;10.60;99.90;;;;;;5094508;27;39277;-70
2022/01/03 01:53:55;;;;;;;65.23;10.17;;;10.60;99.90;;;;;;5077877;27;39648;-70
2022/01/03 01:56:27;;;;;;;66.83;9.03;;;10.70;99.90;;;;;;5094030;27;37816;-70
2022/01/03 01:59:13;;;;;;;58.60;7.82;;;10.70;99.90;;;;;;5096928;27;39465;-71
2022/01/03 02:01:46;;;;;;;62.73;8.23;;;10.70;99.90;;;;;;5083014;28;47427;-71
2022/01/03 02:04:31;;;;;;;63.65;9.38;;;10.60;99.90;;;;;;5081389;27;38426;-71
2022/01/03 02:07:11;;;;;;;64.40;9.17;;;10.60;99.90;;;;;;5067417;28;38026;-72
2022/01/03 02:10:08;;;;;;;58.63;8.60;;;10.60;99.90;;;;;;5069249;28;49213;-70
2022/01/03 02:12:37;;;;;;;58.73;7.30;;;10.60;99.90;;;;;;5052083;28;47258;-70
2022/01/03 02:15:09;;;;;;;65.30;8.00;;;10.60;99.90;;;;;;5073978;28;38195;-71
2022/01/03 02:17:35;;;;;;;54.67;9.03;;;10.60;99.90;;;;;;5049493;28;48158;-71
2022/01/03 02:20:14;;;;;;;53.23;7.27;;;10.60;99.90;;;;;;5070358;28;38804;-71
2022/01/03 02:22:41;;;;;;;56.17;8.40;;;10.60;99.90;;;;;;5058057;28;46935;-71
2022/01/03 02:25:10;;;;;;;70.60;8.80;;;10.60;99.90;;;;;;5069785;28;37537;-71
2022/01/03 02:27:37;;;;;;;55.67;7.40;;;10.60;99.90;;;;;;5072509;28;37214;-71
2022/01/03 02:30:09;;;;;;;60.50;8.33;;;10.60;99.90;;;;;;5052567;28;40064;-70
2022/01/03 02:32:36;;;;;;;52.10;8.03;;;10.50;99.90;;;;;;5069143;28;49093;-71
2022/01/03 02:35:03;;;;;;;66.37;7.87;;;10.60;99.90;;;;;;5070469;28;37623;-71
2022/01/03 02:37:29;;;;;;;58.23;8.27;;;10.50;99.90;;;;;;5054491;28;37799;-71
2022/01/03 02:39:56;;;;;;;64.93;8.83;;;10.50;99.90;;;;;;5074849;28;38553;-71
2022/01/03 02:42:25;;;;;;;66.70;9.60;;;10.50;99.90;;;;;;5050820;28;39336;-71
2022/01/03 02:45:06;;;;;;;65.33;8.93;;;10.50;99.90;;;;;;5071069;28;38149;-71
2022/01/03 02:47:33;;;;;;;58.30;8.37;;;10.60;99.90;;;;;;5066993;28;48583;-70
2022/01/03 02:49:59;;;;;;;60.60;9.13;;;10.70;99.90;;;;;;5051060;28;40884;-71
2022/01/03 02:52:25;;;;;;;68.63;8.77;;;10.70;99.90;;;;;;5065989;28;39090;-70
2022/01/03 02:54:52;;;;;;;60.90;9.50;;;10.70;99.90;;;;;;5057776;28;36829;-70
2022/01/03 02:57:23;;;;;;;60.83;8.70;;;10.70;99.90;;;;;;5054886;28;38684;-71
2022/01/03 02:59:57;;;;;;;68.97;9.37;;;10.70;99.90;;;;;;5054342;28;38246;-71
2022/01/03 03:02:25;;;;;;;74.50;10.10;;;10.70;99.90;;;;;;5049403;28;39119;-71
2022/01/03 03:04:59;;;;;;;72.77;9.17;;;10.60;99.90;;;;;;5069571;28;39186;-71
2022/01/03 03:07:28;;;;;;;63.70;9.83;;;10.70;99.90;;;;;;5082994;27;37676;-71
2022/01/03 03:09:56;;;;;;;56.30;7.90;;;10.70;99.90;;;;;;5074000;28;39002;-72
2022/01/03 03:12:22;;;;;;;70.07;9.23;;;10.70;99.90;;;;;;5074706;28;37287;-71
2022/01/03 03:14:49;;;;;;;62.80;9.87;;;10.70;99.90;;;;;;5071658;28;37895;-71
2022/01/03 03:17:18;;;;;;;56.80;9.00;;;10.80;99.90;;;;;;5059231;28;38180;-71
2022/01/03 03:19:55;;;;;;;76.50;10.63;;;10.80;99.90;;;;;;5074441;28;37963;-71
2022/01/03 03:22:23;;;;;;;65.30;8.20;;;10.80;99.90;;;;;;5076269;27;38512;-71
2022/01/03 03:24:49;;;;;;;60.17;8.20;;;10.80;99.90;;;;;;5058408;28;38268;-71
2022/01/03 03:27:16;;;;;;;65.50;8.60;;;10.80;99.90;;;;;;5075072;27;37900;-71
2022/01/03 03:29:48;;;;;;;57.53;7.93;;;10.70;99.90;;;;;;5075581;27;38927;-71
2022/01/03 03:32:15;;;;;;;68.93;8.80;;;10.80;99.90;;;;;;5057924;28;41188;-71
2022/01/03 03:34:42;;;;;;;67.03;9.00;;;10.80;99.90;;;;;;5077542;28;38343;-71
2022/01/03 03:37:09;;;;;;;53.10;7.77;;;10.80;99.90;;;;;;5060558;28;36415;-71
2022/01/03 03:39:36;;;;;;;63.77;8.80;;;10.80;99.90;;;;;;5077447;28;38642;-71
2022/01/03 03:42:04;;;;;;;56.27;7.73;;;10.80;99.90;;;;;;5076304;27;38576;-71
2022/01/03 03:44:30;;;;;;;59.20;8.03;;;10.80;99.90;;;;;;5074845;28;39353;-71
2022/01/03 03:46:56;;;;;;;55.97;7.47;;;10.80;99.90;;;;;;5076421;27;39067;-72
2022/01/03 03:49:23;;;;;;;64.97;9.03;;;10.90;99.90;;;;;;5072779;28;38091;-71
2022/01/03 03:51:49;;;;;;;61.50;8.87;;;10.90;99.90;;;;;;5060615;28;39782;-71
2022/01/03 03:54:15;;;;;;;58.07;8.10;;;11.00;99.90;;;;;;5052310;28;36887;-71
2022/01/03 03:56:41;;;;;;;74.27;10.27;;;11.00;99.90;;;;;;5085910;27;37709;-71
2022/01/03 03:59:07;;;;;;;69.60;9.13;;;11.00;99.90;;;;;;5060822;28;39511;-71
2022/01/03 04:01:33;;;;;;;61.57;8.80;;;11.00;99.90;;;;;;5075476;28;38365;-71
2022/01/03 04:04:00;;;;;;;57.23;8.23;;;10.90;99.90;;;;;;5057903;28;38163;-71
2022/01/03 04:06:26;;;;;;;70.57;8.90;;;11.00;99.90;;;;;;5069715;28;37617;-72
2022/01/03 04:08:52;;;;;;;62.47;9.93;;;10.90;99.90;;;;;;5077540;28;39379;-71
2022/01/03 04:11:18;;;;;;;78.40;11.33;;;10.90;99.90;;;;;;5073075;28;38960;-72
2022/01/03 04:13:44;;;;;;;59.17;9.07;;;10.90;99.90;;;;;;5077152;28;39855;-71
2022/01/03 04:16:12;;;;;;;64.57;9.37;;;10.90;99.90;;;;;;5072662;28;38316;-71
2022/01/03 04:18:38;;;;;;;69.33;9.13;;;10.80;99.90;;;;;;5075968;28;39469;-71
2022/01/03 04:21:04;;;;;;;65.13;8.40;;;10.80;99.90;;;;;;5068546;28;38874;-71
2022/01/03 04:23:30;;;;;;;62.67;8.40;;;10.70;99.90;;;;;;5076243;28;38220;-72
2022/01/03 04:25:57;;;;;;;59.00;8.17;;;10.70;99.90;;;;;;5078607;28;37496;-71
2022/01/03 04:28:23;;;;;;;76.13;9.13;;;10.70;99.90;;;;;;5078246;28;39193;-71
2022/01/03 04:30:51;;;;;;;64.57;7.37;;;10.70;99.90;;;;;;5071480;28;38761;-71
2022/01/03 04:33:17;;;;;;;74.60;9.67;;;10.70;99.90;;;;;;5071556;28;38793;-71
2022/01/03 04:35:43;;;;;;;56.40;9.27;;;10.70;99.90;;;;;;5076250;28;36858;-71
2022/01/03 04:38:10;;;;;;;58.53;8.17;;;10.70;99.90;;;;;;5092543;27;39474;-71
2022/01/03 04:40:36;;;;;;;62.83;8.57;;;10.70;99.90;;;;;;5095677;27;40103;-71
2022/01/03 04:43:03;;;;;;;64.90;7.77;;;10.70;99.90;;;;;;5098066;27;39102;-71
2022/01/03 04:45:30;;;;;;;57.00;8.33;;;10.70;99.90;;;;;;5095956;27;37571;-71
2022/01/03 04:47:56;;;;;;;55.53;8.30;;;10.60;99.90;;;;;;5087385;27;39521;-71
2022/01/03 04:50:22;;;;;;;73.13;8.63;;;10.70;99.90;;;;;;5082142;27;38375;-71
2022/01/03 04:52:48;;;;;;;57.30;8.30;;;10.70;99.90;;;;;;5078222;27;38161;-72
2022/01/03 04:55:14;;;;;;;63.37;9.30;;;10.70;99.90;;;;;;5099603;27;37331;-71
2022/01/03 04:57:40;;;;;;;61.80;8.53;;;10.70;99.90;;;;;;5098961;27;38955;-71
2022/01/03 05:00:08;;;;;;;66.37;8.30;;;10.70;99.90;;;;;;5099365;27;38344;-71
2022/01/03 05:02:36;;;;;;;57.40;8.30;;;10.70;99.90;;;;;;5080162;27;46271;-70
2022/01/03 05:05:03;;;;;;;56.47;8.70;;;10.70;99.90;;;;;;5095171;27;37603;-71
2022/01/03 05:07:29;;;;;;;59.40;8.57;;;10.70;99.90;;;;;;5081517;27;47065;-70
2022/01/03 05:09:56;;;;;;;56.73;8.30;;;10.70;99.90;;;;;;5102948;27;38418;-71
2022/01/03 05:12:22;;;;;;;50.07;7.63;;;10.80;99.90;;;;;;5084105;28;38563;-71
2022/01/03 05:14:48;;;;;;;57.50;8.20;;;10.90;99.90;;;;;;5098425;27;38133;-70
2022/01/03 05:17:14;;;;;;;56.10;7.77;;;10.80;99.90;;;;;;5100138;27;39444;-71
2022/01/03 05:19:40;;;;;;;59.90;7.43;;;10.80;99.90;;;;;;5078673;27;39457;-70
2022/01/03 05:22:06;;;;;;;57.00;7.97;;;10.70;99.90;;;;;;5084129;27;41657;-70
2022/01/03 05:24:36;;;;;;;56.40;9.37;;;10.70;99.90;;;;;;5083624;27;36414;-71
2022/01/03 05:27:03;;;;;;;64.27;7.53;;;10.70;99.90;;;;;;5097944;27;39224;-71
2022/01/03 05:29:29;;;;;;;54.50;7.40;;;10.70;99.90;;;;;;5077287;27;38285;-70
2022/01/03 05:31:55;;;;;;;54.93;9.67;;;10.70;99.90;;;;;;5078641;27;38391;-70
2022/01/03 05:34:22;;;;;;;49.57;7.57;;;10.70;99.90;;;;;;5089180;27;36038;-71
2022/01/03 05:36:48;;;;;;;44.33;7.07;;;10.70;99.90;;;;;;5093389;27;40022;-71
2022/01/03 05:39:14;;;;;;;45.20;6.20;;;10.70;99.90;;;;;;5070805;27;35718;-71
2022/01/03 05:41:41;;;;;;;51.57;7.87;;;10.70;99.90;;;;;;5099421;27;39082;-71
2022/01/03 05:44:08;;;;;;;49.03;6.10;;;10.70;99.90;;;;;;5073300;27;37828;-71
2022/01/03 05:46:34;;;;;;;41.57;6.97;;;10.60;99.90;;;;;;5095205;27;39512;-70
2022/01/03 05:49:01;;;;;;;50.70;7.57;;;10.60;99.90;;;;;;5097922;27;39182;-73
2022/01/03 05:51:27;;;;;;;44.77;7.37;;;10.70;99.90;;;;;;5073827;27;47233;-71
2022/01/03 05:53:53;;;;;;;48.90;8.57;;;10.70;99.90;;;;;;5075666;27;37115;-71
2022/01/03 05:56:20;;;;;;;50.93;7.77;;;10.80;99.90;;;;;;5079355;27;38177;-71
2022/01/03 05:58:46;;;;;;;43.93;7.07;;;10.90;99.90;;;;;;5097153;27;38227;-71
2022/01/03 06:01:13;;;;;;;46.93;6.13;;;10.90;99.90;;;;;;5094657;27;37828;-71
2022/01/03 06:03:40;;;;;;;49.13;7.37;;;11.00;99.90;;;;;;5079830;27;37760;-71
2022/01/03 06:08:37;;;;;;;37.87;6.83;;;11.10;99.90;;;;;;5098035;27;39577;-71
2022/01/03 06:11:03;;;;;;;49.53;7.20;;;11.10;99.90;;;;;;5089886;27;36872;-71
2022/01/03 06:13:29;;;;;;;37.17;6.87;;;11.10;99.90;;;;;;5075967;27;38622;-71
2022/01/03 06:15:56;;;;;;;48.70;6.57;;;11.10;99.90;;;;;;5077560;27;37161;-71
2022/01/03 06:18:24;;;;;;;51.10;6.53;;;11.10;99.90;;;;;;5089549;27;38208;-71
2022/01/03 06:20:51;;;;;;;36.90;6.23;;;11.10;99.90;;;;;;5091824;27;41913;-70
2022/01/03 06:23:19;;;;;;;39.53;5.97;;;11.00;99.90;;;;;;5089109;27;37979;-71
2022/01/03 06:25:47;;;;;;;43.63;6.27;;;11.00;99.90;;;;;;5095143;27;38447;-70
2022/01/03 06:28:13;;;;;;;51.13;6.43;;;10.90;99.90;;;;;;5079575;27;39416;-71
2022/01/03 06:30:41;;;;;;;41.50;7.30;;;10.90;99.90;;;;;;5089540;27;38124;-70
2022/01/03 06:33:09;;;;;;;35.00;5.57;;;10.80;99.90;;;;;;5095662;27;36789;-70
2022/01/03 06:35:36;;;;;;;46.10;6.60;;;10.80;99.90;;;;;;5075639;27;37702;-70
2022/01/03 06:38:04;;;;;;;35.53;5.83;;;10.80;99.90;;;;;;5077376;27;37501;-71
2022/01/03 06:40:30;;;;;;;40.23;6.57;;;10.80;99.90;;;;;;5071661;27;40066;-71
2022/01/03 06:42:56;;;;;;;35.13;5.30;;;10.80;99.90;;;;;;5094553;27;37612;-71
2022/01/03 06:45:22;;;;;;;43.87;6.83;;;10.70;99.90;;;;;;5076956;27;40485;-72
2022/01/03 06:47:50;;;;;;;48.07;7.20;;;10.70;99.90;;;;;;5096260;27;38276;-71
2022/01/03 06:50:17;;;;;;;45.27;7.57;;;10.70;99.90;;;;;;5073923;27;39775;-71
2022/01/03 06:52:43;;;;;;;43.20;6.20;;;10.60;99.90;;;;;;5091643;27;37330;-70
2022/01/03 06:55:09;;;;;;;47.40;6.50;;;10.60;99.90;;;;;;5079894;27;39453;-72
2022/01/03 06:57:35;;;;;;;54.07;7.93;;;10.60;99.90;;;;;;5079825;27;38935;-72
2022/01/03 07:00:01;;;;;;;47.83;6.97;;;10.50;99.90;;;;;;5094744;27;37630;-71
2022/01/03 07:02:27;;;;;;;47.13;5.87;;;10.50;99.90;;;;;;5074742;27;37924;-70
2022/01/03 07:04:55;;;;;;;58.70;7.37;;;10.40;99.90;;;;;;5094169;27;40318;-70
2022/01/03 07:07:21;;;;;;;41.90;7.63;;;10.40;99.90;;;;;;5077844;27;39917;-70
2022/01/03 07:09:47;;;;;;;57.70;8.57;;;10.40;99.90;;;;;;5095451;27;38084;-71
2022/01/03 07:12:13;;;;;;;49.90;6.77;;;10.40;99.90;;;;;;5076416;28;38302;-71
2022/01/03 07:20:09;;;;;;;57.57;7.70;;;10.40;99.90;;;;;;5054270;28;37137;-71
2022/01/03 07:22:40;;;;;;;50.47;6.93;;;10.40;99.90;;;;;;5091409;27;36423;-70
2022/01/03 07:25:08;;;;;;;54.40;6.33;;;10.40;99.90;;;;;;5074583;27;40546;-71
2022/01/03 07:27:34;;;;;;;61.17;8.00;;;10.40;99.90;;;;;;5079954;27;38475;-71
2022/01/03 07:30:00;;;;;;;52.97;6.37;;;10.50;99.90;;;;;;5099768;27;38196;-71
2022/01/03 07:32:26;;;;;;;51.33;7.93;;;10.50;99.90;;;;;;5075116;27;47130;-70
2022/01/03 07:34:53;;;;;;;51.17;7.80;;;10.40;99.90;;;;;;5094602;27;37385;-71
2022/01/03 07:37:19;;;;;;;65.00;7.53;;;10.40;99.90;;;;;;5096995;27;38087;-71
2022/01/03 07:39:45;;;;;;;46.30;7.43;;;10.30;99.90;;;;;;5090082;27;38466;-71
2022/01/03 07:42:11;;;;;;;51.43;7.73;;;10.40;99.90;;;;;;5090485;27;37057;-71
2022/01/03 07:44:37;;;;;;;48.67;8.17;;;10.40;99.90;;;;;;5079938;28;39281;-71
2022/01/03 07:47:05;;;;;;;48.30;7.23;;;10.40;99.90;;;;;;5073882;27;37007;-70
2022/01/03 07:49:31;;;;;;;49.40;6.73;;;10.40;99.90;;;;;;5092218;27;38101;-71
2022/01/03 07:51:58;;;;;;;56.03;6.90;;;10.50;99.90;;;;;;5071930;27;37535;-71
2022/01/03 07:54:24;;;;;;;57.17;7.67;;;10.40;99.90;;;;;;5073876;27;39714;-70
2022/01/03 07:56:51;;;;;;;45.70;6.50;;;10.40;99.90;;;;;;5068406;28;39019;-70
2022/01/03 07:59:17;;;;;;;57.13;8.13;;;10.40;99.90;;;;;;5074155;28;38142;-71
2022/01/03 08:01:43;;;;;;;53.23;7.90;;;10.40;99.90;;;;;;5093434;27;37653;-71
2022/01/03 08:04:09;;;;;;;51.20;6.33;;;10.40;99.90;;;;;;5091401;27;39464;-71
2022/01/03 08:06:35;;;;;;;46.50;8.20;;;10.50;99.90;;;;;;5075403;27;38177;-71
2022/01/03 08:09:01;;;;;;;46.67;7.07;;;10.50;99.90;;;;;;5092444;27;39140;-71
2022/01/03 08:11:27;;;;;;;48.17;7.37;;;10.50;99.90;;;;;;5072285;27;47549;-71
2022/01/03 08:13:53;;;;;;;47.73;5.77;;;10.50;99.90;;;;;;5098286;27;38539;-71
2022/01/03 08:16:20;;;;;;;46.50;6.80;;;10.50;99.90;;;;;;5097099;27;38607;-71
2022/01/03 08:18:46;;;;;;;45.03;7.93;;;10.40;99.90;;;;;;5096200;27;36240;-71
2022/01/03 08:21:14;;;;;;;54.73;7.03;;;10.40;99.90;;;;;;5083889;27;37492;-71
2022/01/03 08:23:40;;;;;;;50.83;6.27;;;10.40;99.90;;;;;;5084401;27;40140;-71
2022/01/03 08:26:06;;;;;;;54.27;6.73;;;10.40;99.90;;;;;;5078824;27;37137;-71
2022/01/03 08:28:32;;;;;;;50.20;7.43;;;10.30;99.90;;;;;;5084278;27;36993;-71
2022/01/03 08:30:58;;;;;;;54.07;7.53;;;10.40;99.90;;;;;;5086309;27;36106;-72
2022/01/03 08:33:24;;;;;;;50.60;6.70;;;10.40;99.90;;;;;;5098730;27;39126;-72
2022/01/03 08:35:50;;;;;;;46.63;7.57;;;10.40;99.90;;;;;;5077904;28;38770;-71
2022/01/03 08:38:16;;;;;;;55.47;7.60;;;10.40;99.90;;;;;;5081797;28;38630;-71
2022/01/03 08:40:43;;;;;;;59.20;7.77;;;10.50;99.90;;;;;;5095780;27;37329;-72
2022/01/03 08:43:09;;;;;;;53.63;7.70;;;10.50;99.90;;;;;;5093627;27;38619;-72
2022/01/03 08:45:35;;;;;;;54.27;6.90;;;10.50;99.90;;;;;;5077603;27;39300;-72
2022/01/03 08:48:01;;;;;;;47.80;6.63;;;10.50;99.90;;;;;;5096785;27;38037;-72
2022/01/03 08:50:27;;;;;;;51.07;7.43;;;10.50;99.90;;;;;;5079039;27;38472;-72
2022/01/03 08:52:53;;;;;;;56.67;6.50;;;10.50;99.90;;;;;;5090283;27;40159;-71
2022/01/03 08:55:20;;;;;;;57.13;7.93;;;10.40;99.90;;;;;;5084518;28;38664;-71
2022/01/03 08:57:51;;;;;;;47.30;6.40;;;10.40;99.90;;;;;;5080507;27;38362;-72
2022/01/03 09:00:19;;;;;;;52.10;6.90;;;10.40;99.90;;;;;;5083240;27;38264;-71
2022/01/03 09:02:45;;;;;;;40.60;6.20;;;10.30;99.90;;;;;;5078784;27;39423;-71
2022/01/03 09:05:11;;;;;;;45.60;6.17;;;10.30;99.90;;;;;;5094550;27;38428;-71
2022/01/03 09:07:37;;;;;;;37.30;5.10;;;10.30;99.90;;;;;;5096282;27;38291;-71
2022/01/03 09:10:05;;;;;;;43.63;5.63;;;10.30;99.90;;;;;;5100705;27;37306;-71
2022/01/03 09:12:31;;;;;;;40.50;6.20;;;10.30;99.90;;;;;;5095822;27;47126;-71
2022/01/03 09:14:58;;;;;;;41.47;6.07;;;10.30;99.90;;;;;;5111055;27;38317;-71
2022/01/03 09:17:25;;;;;;;38.07;6.33;;;10.30;99.90;;;;;;5078615;27;39024;-71
2022/01/03 09:19:52;;;;;;;46.67;7.43;;;10.30;99.90;;;;;;5088953;27;38220;-72
2022/01/03 09:22:24;;;;;;;36.30;5.23;;;10.20;99.90;;;;;;5098298;27;38926;-72
2022/01/03 09:28:48;;;;;;;44.27;6.40;;;10.20;99.90;;;;;;5102357;27;38993;-71
2022/01/03 09:30:24;;;;;;;40.13;5.57;;;10.30;99.90;;;;;;5103536;27;37877;-71
2022/01/03 09:32:51;;;;;;;44.00;6.80;;;10.30;99.90;;;;;;5086526;27;39250;-71
2022/01/03 09:35:17;;;;;;;42.70;5.53;;;10.30;99.90;;;;;;5083366;28;40172;-71
2022/01/03 09:37:43;;;;;;;44.23;7.40;;;10.30;99.90;;;;;;5088868;27;39172;-71
2022/01/03 09:40:10;;;;;;;44.47;5.87;;;10.40;99.90;;;;;;5104411;27;37186;-71
2022/01/03 09:42:36;;;;;;;42.87;6.37;;;10.40;99.90;;;;;;5099142;27;38969;-71
2022/01/03 09:45:08;;;;;;;40.53;6.77;;;10.40;99.90;;;;;;5089079;27;40200;-71
2022/01/03 09:47:41;;;;;;;40.20;6.60;;;10.40;99.90;;;;;;5097397;27;48634;-72
2022/01/03 09:50:09;;;;;;;47.00;6.77;;;10.50;99.90;;;;;;5086559;27;39036;-72
2022/01/03 09:52:37;;;;;;;36.03;5.83;;;10.50;99.90;;;;;;5083129;27;37886;-72
2022/01/03 09:55:03;;;;;;;44.73;6.20;;;10.50;99.90;;;;;;5104021;27;39456;-72
2022/01/03 09:57:30;;;;;;;31.07;5.40;;;10.50;99.90;;;;;;5081735;27;38323;-71
2022/01/03 09:59:59;;;;;;;37.43;5.97;;;10.60;99.90;;;;;;5081667;28;36390;-71
2022/01/03 10:02:25;;;;;;;37.97;5.57;;;10.60;99.90;;;;;;5078816;27;39432;-71
2022/01/03 10:04:52;;;;;;;35.50;5.67;;;10.70;99.90;;;;;;5036889;27;1266524;-71
2022/01/03 10:07:19;;;;;;;39.27;5.17;;;10.80;99.90;;;;;;5086285;28;20465;-71
2022/01/03 10:09:45;;;;;;;45.73;7.57;;;10.90;99.90;;;;;;5081971;28;38063;-71
2022/01/03 10:12:16;;;;;;;39.33;5.93;;;11.00;99.90;;;;;;5095763;27;39839;-72
2022/01/03 10:14:43;;;;;;;44.53;5.77;;;11.10;99.90;;;;;;5103054;27;39036;-71
2022/01/03 10:17:09;;;;;;;41.23;5.70;;;11.20;99.90;;;;;;5077445;27;39556;-72
2022/01/03 10:19:56;;;;;;;40.27;5.93;;;11.20;99.90;;;;;;5083465;27;37392;-72
2022/01/03 10:22:30;;;;;;;40.10;6.13;;;11.30;99.90;;;;;;5097784;27;39243;-71
2022/01/03 10:24:59;;;;;;;40.07;6.17;;;11.30;99.90;;;;;;5102012;27;36909;-71
2022/01/03 10:27:52;;;;;;;41.33;6.90;;;11.20;99.90;;;;;;5099616;27;39946;-71
2022/01/03 10:30:34;;;;;;;36.90;5.67;;;11.20;99.90;;;;;;5086543;27;38597;-71
2022/01/03 10:33:03;;;;;;;42.73;6.60;;;11.30;99.90;;;;;;5091666;28;39647;-71
2022/01/03 10:35:35;;;;;;;39.67;5.90;;;11.20;99.90;;;;;;5079113;28;45221;-71
2022/01/03 10:38:02;;;;;;;44.60;6.43;;;11.30;99.90;;;;;;5104588;27;39558;-71
2022/01/03 10:40:29;;;;;;;41.77;6.30;;;11.40;99.90;;;;;;5098116;27;49637;-71
2022/01/03 10:42:57;;;;;;;34.77;6.13;;;11.60;99.90;;;;;;5085450;27;39419;-71
2022/01/03 10:45:32;;;;;;;41.80;7.27;;;11.70;99.90;;;;;;5103011;27;40432;-71
2022/01/03 10:48:00;;;;;;;29.23;5.23;;;11.80;99.90;;;;;;5104910;27;39242;-71
2022/01/03 10:50:27;;;;;;;40.95;6.25;;;11.90;99.90;;;;;;5090698;27;36898;-71
2022/01/03 10:52:55;;;;;;;41.33;6.40;;;11.80;99.90;;;;;;5086478;27;41035;-72
2022/01/03 10:55:33;;;;;;;34.07;5.23;;;11.80;99.90;;;;;;5110596;27;38002;-71
2022/01/03 10:58:04;;;;;;;35.30;5.67;;;11.80;99.90;;;;;;5105807;27;38178;-72
2022/01/03 11:00:38;;;;;;;41.20;6.23;;;11.80;99.90;;;;;;5080174;27;46932;-71
2022/01/03 11:03:29;;;;;;;38.17;6.07;;;11.90;99.90;;;;;;5099188;27;39672;-71
2022/01/03 11:06:02;;;;;;;39.27;6.30;;;11.90;99.90;;;;;;5106558;27;38315;-72
2022/01/03 11:11:31;;;;;;;31.20;6.72;;;11.90;99.90;;;;;;5103694;27;38031;-71
2022/01/03 11:13:57;;;;;;;30.45;5.13;;;12.00;99.90;;;;;;5082586;28;39221;-71
2022/01/03 11:16:34;;;;;;;38.07;5.47;;;12.00;99.90;;;;;;5072240;27;38922;-71
2022/01/03 11:19:00;;;;;;;40.70;6.93;;;12.10;99.90;;;;;;5081545;27;38647;-72
2022/01/03 11:21:28;;;;;;;32.05;4.97;;;12.20;99.90;;;;;;5078553;27;37614;-72
2022/01/03 11:24:09;;;;;;;33.35;5.32;;;12.30;99.90;;;;;;5071249;28;39047;-71
2022/01/03 11:26:46;;;;;;;34.03;5.07;;;12.30;99.90;;;;;;5084410;27;47743;-72
2022/01/03 11:29:16;;;;;;;28.95;5.53;;;12.30;99.90;;;;;;5099276;27;39306;-72
2022/01/03 11:31:43;;;;;;;28.10;5.33;;;12.20;99.90;;;;;;5093192;27;38627;-72
2022/01/03 11:34:12;;;;;;;32.30;5.57;;;12.10;99.90;;;;;;5084548;27;40305;-72
2022/01/03 11:36:39;;;;;;;31.60;5.40;;;12.00;99.90;;;;;;5090931;27;39374;-72
2022/01/03 11:39:17;;;;;;;30.40;5.43;;;12.00;99.90;;;;;;5091205;27;37059;-71
2022/01/03 11:41:44;;;;;;;26.98;5.10;;;11.90;99.90;;;;;;5098048;27;37822;-71
2022/01/03 11:44:12;;;;;;;29.60;4.67;;;11.80;99.90;;;;;;5094278;27;38006;-72
2022/01/03 11:46:41;;;;;;;27.50;5.60;;;11.70;99.90;;;;;;5087717;27;38877;-70
2022/01/03 11:49:08;;;;;;;34.93;5.60;;;11.60;99.90;;;;;;5083111;27;39854;-71
2022/01/03 11:51:35;;;;;;;31.37;4.53;;;11.50;99.90;;;;;;5083285;27;38293;-72
2022/01/03 11:54:04;;;;;;;28.33;4.97;;;11.40;99.90;;;;;;5096111;27;39833;-72
2022/01/03 11:56:32;;;;;;;30.27;4.77;;;11.40;99.90;;;;;;5084665;28;39285;-71
2022/01/03 12:04:58;;;;;;;30.48;5.20;;;11.20;99.90;;;;;;5096188;27;49282;-71
2022/01/03 12:07:24;;;;;;;36.70;4.40;;;11.20;99.90;;;;;;5074476;28;38693;-70
2022/01/03 12:09:53;;;;;;;29.43;4.30;;;11.20;99.90;;;;;;5104430;27;36774;-71
2022/01/03 12:12:30;;;;;;;35.47;4.53;;;11.30;99.90;;;;;;5082897;28;37553;-72
2022/01/03 12:15:01;;;;;;;26.80;3.60;;;11.30;99.90;;;;;;5101893;27;39218;-71
2022/01/03 12:17:46;;;;;;;25.07;4.47;;;11.30;99.90;;;;;;5100623;27;48933;-70
2022/01/03 12:20:12;;;;;;;28.77;4.70;;;11.30;99.90;;;;;;5071815;28;38605;-70
2022/01/03 12:22:53;;;;;;;23.57;4.03;;;11.30;99.90;;;;;;5095821;27;37243;-70
2022/01/03 12:25:27;;;;;;;22.57;4.10;;;11.30;99.90;;;;;;5108526;27;38969;-71
2022/01/03 12:27:58;;;;;;;28.83;4.30;;;11.30;99.90;;;;;;5086594;27;38836;-70
2022/01/03 12:30:28;;;;;;;20.50;3.33;;;11.30;99.90;;;;;;5084334;28;38155;-70
2022/01/03 12:33:06;;;;;;;28.77;4.63;;;11.30;99.90;;;;;;5097640;27;38092;-71
2022/01/03 12:35:37;;;;;;;25.60;4.03;;;11.30;99.90;;;;;;5090335;27;47572;-71
2022/01/03 12:38:03;;;;;;;29.30;3.97;;;11.40;99.90;;;;;;5094932;27;37081;-71
2022/01/03 12:40:47;;;;;;;20.60;2.80;;;11.40;99.90;;;;;;5095993;27;40320;-71
2022/01/03 12:43:15;;;;;;;26.90;3.93;;;11.40;99.90;;;;;;5084284;28;38216;-71
2022/01/03 12:45:44;;;;;;;20.03;3.27;;;11.40;99.90;;;;;;5105013;27;39612;-72
2022/01/03 12:48:10;;;;;;;20.40;3.30;;;11.40;99.90;;;;;;5085671;27;39455;-71
2022/01/03 12:50:52;;;;;;;26.87;5.93;;;11.40;99.90;;;;;;5100699;28;38137;-71
2022/01/03 12:53:18;;;;;;;25.43;3.57;;;11.40;99.90;;;;;;5084140;28;37627;-71
2022/01/03 12:55:48;;;;;;;19.63;4.03;;;11.50;99.90;;;;;;5101576;27;38671;-72
2022/01/03 12:58:14;;;;;;;19.63;2.80;;;11.50;99.90;;;;;;5093641;27;40074;-70
2022/01/03 13:00:49;;;;;;;21.37;4.60;;;11.50;99.90;;;;;;5088722;28;39146;-71
2022/01/03 13:03:30;;;;;;;24.70;4.03;;;11.50;99.90;;;;;;5104068;27;37156;-71
2022/01/03 13:06:13;;;;;;;15.10;2.77;;;11.60;99.90;;;;;;5100729;27;38930;-71